createdAt,value
2023-03-01T00:01:52.955Z,100.00
2023-03-01T00:04:25.613Z,100.00
2023-03-01T00:06:58.877Z,100.00
2023-03-01T00:09:31.653Z,100.00
2023-03-01T00:12:04.392Z,100.00
2023-03-01T00:14:38.805Z,100.00
2023-03-01T00:17:15.078Z,100.00
2023-03-01T00:19:48.891Z,100.00
2023-03-01T00:22:21.692Z,100.00
2023-03-01T00:24:54.241Z,100.00
2023-03-01T00:27:26.830Z,100.00
2023-03-01T00:29:59.324Z,100.00
2023-03-01T00:32:32.556Z,100.00
2023-03-01T00:35:05.225Z,100.00
2023-03-01T00:37:38.185Z,100.00
2023-03-01T00:40:13.326Z,100.00
2023-03-01T00:42:46.148Z,100.00
2023-03-01T00:45:19.070Z,100.00
2023-03-01T00:47:52.620Z,100.00
2023-03-01T00:50:26.590Z,100.00
2023-03-01T00:52:59.698Z,100.00
2023-03-01T00:55:35.026Z,100.00
2023-03-01T00:58:08.879Z,100.00
2023-03-01T01:00:39.449Z,100.00
2023-03-01T01:03:12.136Z,100.00
2023-03-01T01:05:44.657Z,100.00
2023-03-01T01:08:17.378Z,100.00
2023-03-01T01:10:50.397Z,100.00
2023-03-01T01:13:23.398Z,100.00
2023-03-01T01:15:56.424Z,100.00
2023-03-01T01:18:29.903Z,100.00
2023-03-01T01:21:05.700Z,100.00
2023-03-01T01:23:39.239Z,100.00
2023-03-01T01:26:15.340Z,100.00
2023-03-01T01:28:48.477Z,100.00
2023-03-01T01:31:21.510Z,100.00
2023-03-01T01:33:55.135Z,100.00
2023-03-01T01:36:29.152Z,100.00
2023-03-01T01:39:00.233Z,100.00
2023-03-01T01:41:36.401Z,100.00
2023-03-01T01:44:21.694Z,100.00
2023-03-01T01:46:58.749Z,100.00
2023-03-01T01:49:41.642Z,100.00
2023-03-01T01:52:18.019Z,100.00
2023-03-01T01:54:56.837Z,100.00
2023-03-01T01:57:35.434Z,100.00
2023-03-01T02:00:14.104Z,100.00
2023-03-01T02:02:53.282Z,100.00
2023-03-01T02:05:35.805Z,100.00
2023-03-01T02:08:08.904Z,100.00
2023-03-01T02:10:43.473Z,100.00
2023-03-01T02:13:16.635Z,100.00
2023-03-01T02:15:49.496Z,100.00
2023-03-01T02:18:26.204Z,100.00
2023-03-01T02:21:11.461Z,100.00
2023-03-01T02:23:44.350Z,100.00
2023-03-01T02:26:26.839Z,100.00
2023-03-01T02:28:59.921Z,100.00
2023-03-01T02:31:45.018Z,100.00
2023-03-01T02:34:21.276Z,100.00
2023-03-01T02:36:57.836Z,100.00
2023-03-01T02:39:34.396Z,100.00
2023-03-01T02:42:08.675Z,100.00
2023-03-01T02:44:41.386Z,100.00
2023-03-01T02:47:14.088Z,100.00
2023-03-01T02:49:47.345Z,100.00
2023-03-01T02:52:48.641Z,100.00
2023-03-01T02:55:22.152Z,100.00
2023-03-01T02:57:55.407Z,100.00
2023-03-01T03:00:34.628Z,100.00
2023-03-01T03:03:07.556Z,100.00
2023-03-01T03:05:40.490Z,100.00
2023-03-01T03:08:13.038Z,100.00
2023-03-01T03:10:46.236Z,100.00
2023-03-01T03:13:20.433Z,100.00
2023-03-01T03:15:53.494Z,100.00
2023-03-01T03:18:28.306Z,100.00
2023-03-01T03:21:00.868Z,100.00
2023-03-01T03:23:33.627Z,100.00
2023-03-01T03:26:06.487Z,100.00
2023-03-01T03:28:41.182Z,100.00
2023-03-01T03:31:13.647Z,100.00
2023-03-01T03:33:46.387Z,100.00
2023-03-01T03:36:22.156Z,100.00
2023-03-01T03:38:55.553Z,100.00
2023-03-01T03:41:28.535Z,100.00
2023-03-01T03:44:01.013Z,100.00
2023-03-01T03:46:34.172Z,100.00
2023-03-01T03:49:07.055Z,100.00
2023-03-01T03:51:39.655Z,100.00
2023-03-01T03:54:12.436Z,100.00
2023-03-01T03:56:45.669Z,100.00
2023-03-01T03:59:18.154Z,100.00
2023-03-01T04:01:50.713Z,100.00
2023-03-01T04:04:23.792Z,100.00
2023-03-01T04:06:56.555Z,100.00
2023-03-01T04:09:31.486Z,100.00
2023-03-01T04:12:04.296Z,100.00
2023-03-01T04:14:37.203Z,100.00
2023-03-01T04:17:09.725Z,100.00
2023-03-01T04:19:45.278Z,100.00
2023-03-01T04:22:19.778Z,100.00
2023-03-01T04:24:52.581Z,100.00
2023-03-01T04:27:26.157Z,100.00
2023-03-01T04:30:00.766Z,100.00
2023-03-01T04:32:33.332Z,100.00
2023-03-01T04:35:06.424Z,100.00
2023-03-01T04:37:39.515Z,100.00
2023-03-01T04:40:17.668Z,100.00
2023-03-01T04:42:50.588Z,100.00
2023-03-01T04:45:23.176Z,100.00
2023-03-01T04:47:55.824Z,100.00
2023-03-01T04:50:28.795Z,100.00
2023-03-01T04:53:01.607Z,100.00
2023-03-01T04:55:36.374Z,100.00
2023-03-01T04:58:09.119Z,100.00
2023-03-01T05:00:41.868Z,100.00
2023-03-01T05:03:19.417Z,100.00
2023-03-01T05:05:53.812Z,100.00
2023-03-01T05:08:26.337Z,100.00
2023-03-01T05:10:58.886Z,100.00
2023-03-01T05:13:31.774Z,100.00
2023-03-01T05:16:05.905Z,100.00
2023-03-01T05:18:38.477Z,100.00
2023-03-01T05:21:17.493Z,100.00
2023-03-01T05:23:50.703Z,100.00
2023-03-01T05:26:28.967Z,100.00
2023-03-01T05:29:02.482Z,100.00
2023-03-01T05:31:35.060Z,100.00
2023-03-01T05:34:07.835Z,100.00
2023-03-01T05:36:40.671Z,100.00
2023-03-01T05:39:15.182Z,100.00
2023-03-01T05:41:47.706Z,100.00
2023-03-01T05:44:20.668Z,100.00
2023-03-01T05:46:53.906Z,100.00
2023-03-01T05:49:27.416Z,100.00
2023-03-01T05:52:00.022Z,100.00
2023-03-01T05:54:34.768Z,100.00
2023-03-01T05:57:07.570Z,100.00
2023-03-01T05:59:42.769Z,100.00
2023-03-01T06:02:18.689Z,100.00
2023-03-01T06:04:51.264Z,100.00
2023-03-01T06:07:24.042Z,100.00
2023-03-01T06:10:02.267Z,100.00
2023-03-01T06:12:37.190Z,100.00
2023-03-01T06:15:11.975Z,100.00
2023-03-01T06:17:47.630Z,100.00
2023-03-01T06:20:22.251Z,100.00
2023-03-01T06:22:55.347Z,100.00
2023-03-01T06:25:29.951Z,100.00
2023-03-01T06:28:02.785Z,100.00
2023-03-01T06:30:36.544Z,100.00
2023-03-01T06:33:09.393Z,100.00
2023-03-01T06:35:41.904Z,100.00
2023-03-01T06:38:16.302Z,100.00
2023-03-01T06:40:54.025Z,100.00
2023-03-01T06:43:27.333Z,100.00
2023-03-01T06:46:00.300Z,100.00
2023-03-01T06:48:35.335Z,100.00
2023-03-01T06:51:08.145Z,100.00
2023-03-01T06:53:41.096Z,100.00
2023-03-01T06:56:13.661Z,100.00
2023-03-01T06:58:46.808Z,100.00
2023-03-01T07:01:19.563Z,100.00
2023-03-01T07:03:52.350Z,100.00
2023-03-01T07:06:24.999Z,100.00
2023-03-01T07:08:57.917Z,100.00
2023-03-01T07:11:30.817Z,100.00
2023-03-01T07:14:03.858Z,100.00
2023-03-01T07:16:37.503Z,100.00
2023-03-01T07:19:10.400Z,100.00
2023-03-01T07:21:43.023Z,100.00
2023-03-01T07:24:15.808Z,100.00
2023-03-01T07:26:50.808Z,100.00
2023-03-01T07:29:23.560Z,100.00
2023-03-01T07:31:57.339Z,100.00
2023-03-01T07:34:30.063Z,100.00
2023-03-01T07:37:02.582Z,100.00
2023-03-01T07:39:35.259Z,100.00
2023-03-01T07:42:08.513Z,100.00
2023-03-01T07:44:41.187Z,100.00
2023-03-01T07:47:13.908Z,100.00
2023-03-01T07:49:48.366Z,100.00
2023-03-01T07:52:20.869Z,100.00
2023-03-01T07:54:53.717Z,100.00
2023-03-01T07:57:26.607Z,100.00
2023-03-01T07:59:59.457Z,100.00
2023-03-01T08:02:32.342Z,100.00
2023-03-01T08:05:05.206Z,100.00
2023-03-01T08:07:40.853Z,100.00
2023-03-01T08:10:15.199Z,100.00
2023-03-01T08:12:47.554Z,100.00
2023-03-01T08:15:20.879Z,100.00
2023-03-01T08:17:55.035Z,100.00
2023-03-01T08:20:28.379Z,99.63
2023-03-01T08:23:02.375Z,100.00
2023-03-01T08:25:35.150Z,100.00
2023-03-01T08:28:08.202Z,99.78
2023-03-01T08:30:40.993Z,99.58
2023-03-01T08:33:13.686Z,99.77
2023-03-01T08:35:46.498Z,97.65
2023-03-01T08:38:19.007Z,99.09
2023-03-01T08:40:52.006Z,98.43
2023-03-01T08:43:28.189Z,96.84
2023-03-01T08:46:01.190Z,96.55
2023-03-01T08:48:33.993Z,95.96
2023-03-01T08:51:14.415Z,94.37
2023-03-01T08:53:47.403Z,95.25
2023-03-01T08:56:21.333Z,96.41
2023-03-01T08:58:53.897Z,95.79
2023-03-01T09:01:27.256Z,92.79
2023-03-01T09:04:00.194Z,93.00
2023-03-01T09:06:35.758Z,92.43
2023-03-01T09:09:16.386Z,91.13
2023-03-01T09:11:51.452Z,88.57
2023-03-01T09:14:24.408Z,90.04
2023-03-01T09:16:58.499Z,91.19
2023-03-01T09:19:31.040Z,91.70
2023-03-01T09:22:05.738Z,82.81
2023-03-01T09:24:38.906Z,82.73
2023-03-01T09:27:12.597Z,82.68
2023-03-01T09:29:43.167Z,84.49
2023-03-01T09:32:16.042Z,81.14
2023-03-01T09:35:06.014Z,78.70
2023-03-01T09:37:41.118Z,77.65
2023-03-01T09:40:18.736Z,77.30
2023-03-01T09:43:10.180Z,77.32
2023-03-01T09:45:46.801Z,78.63
2023-03-01T09:48:24.820Z,78.50
2023-03-01T09:50:57.948Z,79.17
2023-03-01T09:53:37.459Z,77.33
2023-03-01T09:56:23.019Z,77.60
2023-03-01T09:59:02.535Z,75.75
2023-03-01T10:01:46.747Z,76.32
2023-03-01T10:04:30.528Z,72.92
2023-03-01T10:07:17.183Z,68.46
2023-03-01T10:09:50.036Z,73.13
2023-03-01T10:12:25.182Z,73.33
2023-03-01T10:15:03.822Z,70.05
2023-03-01T10:17:40.328Z,73.64
2023-03-01T10:20:21.322Z,75.46
2023-03-01T10:22:56.902Z,73.24
2023-03-01T10:25:44.010Z,71.43
2023-03-01T10:28:23.431Z,70.37
2023-03-01T10:30:56.683Z,69.04
2023-03-01T10:33:33.699Z,70.14
2023-03-01T10:36:07.557Z,71.38
2023-03-01T10:38:55.458Z,69.90
2023-03-01T10:41:30.277Z,67.69
2023-03-01T10:44:03.656Z,70.98
2023-03-01T10:46:38.538Z,69.25
2023-03-01T10:49:27.600Z,68.14
2023-03-01T10:52:14.790Z,70.23
2023-03-01T10:54:57.099Z,73.35
2023-03-01T10:57:42.883Z,74.74
2023-03-01T11:00:26.238Z,71.25
2023-03-01T11:03:16.321Z,70.07
2023-03-01T11:06:03.173Z,69.49
2023-03-01T11:08:38.968Z,66.97
2023-03-01T11:11:38.395Z,66.60
2023-03-01T11:14:27.336Z,66.66
2023-03-01T11:17:14.144Z,63.79
2023-03-01T11:20:02.827Z,64.10
2023-03-01T11:22:38.462Z,66.40
2023-03-01T11:25:16.888Z,66.99
2023-03-01T11:27:49.904Z,64.07
2023-03-01T11:30:27.462Z,61.90
2023-03-01T11:33:14.302Z,60.39
2023-03-01T11:35:57.234Z,57.22
2023-03-01T11:38:32.005Z,54.15
2023-03-01T11:41:10.720Z,53.75
2023-03-01T11:43:54.951Z,53.19
2023-03-01T11:46:52.224Z,53.04
2023-03-01T11:49:52.727Z,54.35
2023-03-01T11:52:37.251Z,53.10
2023-03-01T11:55:39.667Z,49.45
2023-03-01T11:58:26.078Z,51.20
2023-03-01T12:01:41.748Z,49.23
2023-03-01T12:04:33.431Z,49.90
2023-03-01T12:07:12.100Z,49.07
2023-03-01T12:10:09.351Z,47.84
2023-03-01T12:12:55.155Z,50.18
2023-03-01T12:15:54.280Z,50.40
2023-03-01T12:18:54.448Z,49.91
2023-03-01T12:21:41.598Z,51.69
2023-03-01T12:24:45.929Z,51.07
2023-03-01T12:27:32.692Z,51.27
2023-03-01T12:30:20.060Z,53.36
2023-03-01T12:33:04.138Z,53.88
2023-03-01T12:35:47.661Z,52.81
2023-03-01T12:38:36.074Z,53.94
2023-03-01T12:41:24.928Z,50.81
2023-03-01T12:44:05.839Z,53.12
2023-03-01T12:46:54.081Z,55.60
2023-03-01T12:49:41.197Z,52.22
2023-03-01T12:52:19.770Z,57.60
2023-03-01T12:54:56.173Z,55.80
2023-03-01T12:57:38.380Z,53.97
2023-03-01T13:00:27.684Z,55.51
2023-03-01T13:03:12.387Z,55.48
2023-03-01T13:05:59.143Z,54.57
2023-03-01T13:08:40.368Z,54.09
2023-03-01T13:11:21.470Z,52.39
2023-03-01T13:13:56.060Z,52.25
2023-03-01T13:16:46.463Z,51.92
2023-03-01T13:19:21.564Z,53.11
2023-03-01T13:21:56.639Z,55.83
2023-03-01T13:24:40.375Z,58.19
2023-03-01T13:27:30.699Z,53.52
2023-03-01T13:32:55.316Z,56.63
2023-03-01T13:35:47.794Z,54.61
2023-03-01T13:38:47.684Z,54.47
2023-03-01T13:41:40.910Z,53.77
2023-03-01T13:44:28.220Z,55.14
2023-03-01T13:47:18.674Z,56.15
2023-03-01T13:49:55.008Z,55.93
2023-03-01T13:52:40.676Z,56.31
2023-03-01T13:55:23.938Z,55.52
2023-03-01T13:58:01.579Z,55.34
2023-03-01T14:00:39.937Z,56.13
2023-03-01T14:03:17.886Z,53.94
2023-03-01T14:06:17.308Z,54.60
2023-03-01T14:09:03.048Z,55.08
2023-03-01T14:12:02.757Z,55.77
2023-03-01T14:14:47.742Z,54.21
2023-03-01T14:17:37.557Z,54.22
2023-03-01T14:20:19.468Z,53.93
2023-03-01T14:22:55.560Z,53.68
2023-03-01T14:25:34.053Z,55.62
2023-03-01T14:28:17.544Z,55.24
2023-03-01T14:30:52.510Z,54.85
2023-03-01T14:33:29.740Z,56.17
2023-03-01T14:36:08.528Z,57.37
2023-03-01T14:38:43.542Z,57.28
2023-03-01T14:41:21.546Z,56.37
2023-03-01T14:44:01.486Z,56.61
2023-03-01T14:46:39.051Z,54.85
2023-03-01T14:49:16.932Z,51.24
2023-03-01T14:51:55.993Z,52.01
2023-03-01T14:54:38.059Z,49.84
2023-03-01T14:57:17.712Z,48.40
2023-03-01T14:59:55.938Z,50.70
2023-03-01T15:02:31.028Z,53.14
2023-03-01T15:05:09.221Z,53.48
2023-03-01T15:07:50.233Z,52.95
2023-03-01T15:10:30.677Z,54.34
2023-03-01T15:13:15.317Z,54.16
2023-03-01T15:15:49.467Z,53.53
2023-03-01T15:18:25.194Z,53.85
2023-03-01T15:20:59.035Z,54.51
2023-03-01T15:23:31.312Z,54.73
2023-03-01T15:26:04.888Z,56.69
2023-03-01T15:28:42.537Z,53.88
2023-03-01T15:31:24.380Z,55.60
2023-03-01T15:34:10.221Z,56.01
2023-03-01T15:36:46.734Z,55.90
2023-03-01T15:39:44.578Z,55.76
2023-03-01T15:42:38.397Z,55.75
2023-03-01T15:45:26.098Z,55.83
2023-03-01T15:48:03.236Z,57.33
2023-03-01T15:50:41.242Z,58.17
2023-03-01T15:53:17.448Z,58.79
2023-03-01T15:55:51.544Z,58.96
2023-03-01T15:58:28.021Z,59.58
2023-03-01T16:01:02.327Z,61.02
2023-03-01T16:03:35.634Z,59.92
2023-03-01T16:06:09.234Z,60.85
2023-03-01T16:08:41.460Z,61.03
2023-03-01T16:11:19.585Z,61.63
2023-03-01T16:13:53.378Z,65.76
2023-03-01T16:16:26.598Z,70.22
2023-03-01T16:18:59.436Z,70.32
2023-03-01T16:21:34.645Z,71.30
2023-03-01T16:24:09.092Z,69.21
2023-03-01T16:26:43.488Z,69.84
2023-03-01T16:29:16.821Z,72.09
2023-03-01T16:31:49.812Z,71.23
2023-03-01T16:34:23.305Z,72.04
2023-03-01T16:36:56.110Z,73.26
2023-03-01T16:39:29.717Z,74.71
2023-03-01T16:42:04.525Z,74.26
2023-03-01T16:44:41.856Z,73.62
2023-03-01T16:47:15.084Z,74.18
2023-03-01T16:49:47.877Z,74.65
2023-03-01T16:52:20.552Z,75.37
2023-03-01T16:54:55.155Z,75.47
2023-03-01T16:57:27.758Z,76.88
2023-03-01T17:00:01.113Z,76.52
2023-03-01T17:02:34.212Z,76.20
2023-03-01T17:05:08.496Z,76.62
2023-03-01T17:07:41.748Z,78.74
2023-03-01T17:10:16.066Z,77.19
2023-03-01T17:12:50.277Z,77.27
2023-03-01T17:15:22.976Z,78.96
2023-03-01T17:17:55.589Z,78.91
2023-03-01T17:20:29.225Z,80.36
2023-03-01T17:23:02.899Z,79.55
2023-03-01T17:25:37.986Z,79.77
2023-03-01T17:28:21.419Z,79.29
2023-03-01T17:30:54.695Z,78.18
2023-03-01T17:33:28.159Z,79.02
2023-03-01T17:36:04.754Z,79.46
2023-03-01T17:38:39.156Z,78.82
2023-03-01T17:41:12.743Z,81.06
2023-03-01T17:43:46.213Z,81.20
2023-03-01T17:46:23.560Z,80.86
2023-03-01T17:48:59.353Z,79.65
2023-03-01T17:51:33.223Z,79.98
2023-03-01T17:54:06.627Z,84.65
2023-03-01T17:56:43.014Z,85.24
2023-03-01T17:59:18.125Z,86.46
2023-03-01T18:01:51.337Z,88.08
2023-03-01T18:04:25.535Z,86.51
2023-03-01T18:06:59.953Z,83.38
2023-03-01T18:09:33.028Z,84.37
2023-03-01T18:12:06.312Z,85.38
2023-03-01T18:14:39.304Z,86.48
2023-03-01T18:17:13.581Z,84.93
2023-03-01T18:19:46.054Z,85.47
2023-03-01T18:22:19.022Z,86.62
2023-03-01T18:24:51.415Z,87.43
2023-03-01T18:27:24.059Z,86.65
2023-03-01T18:29:58.352Z,86.90
2023-03-01T18:32:31.205Z,86.79
2023-03-01T18:35:05.444Z,86.68
2023-03-01T18:37:38.837Z,87.97
2023-03-01T18:40:14.356Z,84.02
2023-03-01T18:42:47.026Z,84.27
2023-03-01T18:45:20.225Z,82.47
2023-03-01T18:47:54.186Z,84.31
2023-03-01T18:50:27.637Z,85.60
2023-03-01T18:53:04.266Z,85.22
2023-03-01T18:55:40.807Z,88.04
2023-03-01T18:58:17.275Z,87.51
2023-03-01T19:00:51.982Z,85.31
2023-03-01T19:03:25.213Z,83.77
2023-03-01T19:06:01.216Z,81.32
2023-03-01T19:08:36.864Z,81.51
2023-03-01T19:11:11.870Z,80.56
2023-03-01T19:13:45.965Z,82.56
2023-03-01T19:16:21.325Z,84.45
2023-03-01T19:18:56.804Z,83.44
2023-03-01T19:21:34.232Z,84.30
2023-03-01T19:24:10.046Z,83.67
2023-03-01T19:26:43.724Z,82.83
2023-03-01T19:29:16.803Z,84.13
2023-03-01T19:31:50.520Z,83.02
2023-03-01T19:34:23.422Z,83.94
2023-03-01T19:36:56.809Z,85.63
2023-03-01T19:39:30.763Z,85.37
2023-03-01T19:42:04.904Z,85.48
2023-03-01T19:44:39.072Z,85.05
2023-03-01T19:50:49.085Z,86.42
2023-03-01T19:53:23.606Z,85.36
2023-03-01T19:56:01.414Z,84.89
2023-03-01T19:58:35.658Z,85.88
2023-03-01T20:01:18.674Z,85.90
2023-03-01T20:03:51.268Z,86.65
2023-03-01T20:06:25.998Z,86.93
2023-03-01T20:09:20.995Z,86.15
2023-03-01T20:11:55.146Z,87.37
2023-03-01T20:14:27.782Z,87.41
2023-03-01T20:17:00.565Z,86.96
2023-03-01T20:19:33.594Z,86.82
2023-03-01T20:22:06.224Z,86.84
2023-03-01T20:27:54.340Z,84.12
2023-03-01T20:30:28.361Z,83.45
2023-03-01T20:33:01.090Z,82.94
2023-03-01T20:35:36.435Z,83.64
2023-03-01T20:38:09.887Z,83.59
2023-03-01T20:40:44.399Z,84.24
2023-03-01T20:43:18.671Z,85.69
2023-03-01T20:45:51.336Z,85.14
2023-03-01T20:48:24.321Z,85.43
2023-03-01T20:51:01.928Z,86.79
2023-03-01T20:53:34.672Z,88.08
2023-03-01T20:56:09.181Z,89.36
2023-03-01T20:58:42.333Z,90.85
2023-03-01T21:01:19.288Z,89.60
2023-03-01T21:03:51.747Z,93.13
2023-03-01T21:06:24.892Z,94.54
2023-03-01T21:08:58.232Z,94.58
2023-03-01T21:11:30.957Z,94.38
2023-03-01T21:14:05.758Z,94.41
2023-03-01T21:16:38.382Z,94.49
2023-03-01T21:19:13.860Z,95.99
2023-03-01T21:21:46.757Z,95.48
2023-03-01T21:24:19.436Z,94.16
2023-03-01T21:26:52.034Z,93.93
2023-03-01T21:29:25.307Z,93.47
2023-03-01T21:31:58.511Z,93.40
2023-03-01T21:34:31.306Z,93.04
2023-03-01T21:37:04.347Z,93.05
2023-03-01T21:39:37.871Z,93.32
2023-03-01T21:42:10.574Z,93.44
2023-03-01T21:44:43.141Z,93.22
2023-03-01T21:47:15.705Z,95.21
2023-03-01T21:49:48.968Z,94.37
2023-03-01T21:52:21.565Z,94.07
2023-03-01T21:55:02.297Z,94.34
2023-03-01T21:57:34.983Z,95.34
2023-03-01T22:00:10.386Z,95.14
2023-03-01T22:02:45.267Z,96.94
2023-03-01T22:05:17.891Z,96.41
2023-03-01T22:07:51.270Z,96.59
2023-03-01T22:10:27.423Z,98.58
2023-03-01T22:13:00.948Z,98.06
2023-03-01T22:15:33.511Z,96.05
2023-03-01T22:18:06.190Z,97.24
2023-03-01T22:20:38.901Z,97.20
2023-03-01T22:23:13.099Z,97.70
2023-03-01T22:25:46.635Z,97.09
2023-03-01T22:28:20.530Z,95.28
2023-03-01T22:30:53.084Z,94.94
2023-03-01T22:33:25.994Z,95.46
2023-03-01T22:36:00.048Z,97.45
2023-03-01T22:38:32.707Z,98.67
2023-03-01T22:41:06.455Z,99.77
2023-03-01T22:43:39.569Z,99.73
2023-03-01T22:46:16.942Z,99.44
2023-03-01T22:48:50.006Z,99.89
2023-03-01T22:51:25.577Z,99.77
2023-03-01T22:53:59.076Z,100.00
2023-03-01T22:56:34.418Z,100.00
2023-03-01T22:59:10.067Z,100.00
2023-03-01T23:01:46.610Z,100.00
2023-03-01T23:04:21.066Z,100.00
2023-03-01T23:06:55.355Z,100.00
2023-03-01T23:09:31.102Z,100.00
2023-03-01T23:12:07.005Z,100.00
2023-03-01T23:14:40.803Z,100.00
2023-03-01T23:17:13.293Z,100.00
2023-03-01T23:19:45.872Z,100.00
2023-03-01T23:22:18.419Z,100.00
2023-03-01T23:24:51.066Z,100.00
2023-03-01T23:27:23.753Z,98.07
2023-03-01T23:29:56.262Z,95.60
2023-03-01T23:32:29.659Z,94.09
2023-03-01T23:35:02.430Z,94.30
2023-03-01T23:37:35.182Z,93.93
2023-03-01T23:40:08.783Z,93.00
2023-03-01T23:42:41.758Z,93.44
2023-03-01T23:45:15.358Z,92.77
2023-03-01T23:47:48.030Z,92.97
2023-03-01T23:50:20.821Z,93.27
2023-03-01T23:52:53.497Z,92.18
2023-03-01T23:55:28.247Z,92.07
2023-03-01T23:58:00.841Z,92.50
